sensor_id;sensor_type;location;lat;lon;timestamp;pressure;altitude;pressure_sealevel;temperature;humidity
30081;BME280;16902;50.816;12.828;2023-08-06T00:02:12;96950.88;;;13.80;100.00
30081;BME280;16902;50.816;12.828;2023-08-06T00:07:14;96950.78;;;13.86;100.00
30081;BME280;16902;50.816;12.828;2023-08-06T00:12:16;96937.78;;;13.80;100.00
30081;BME280;16902;50.816;12.828;2023-08-06T00:17:18;96939.22;;;13.76;100.00
30081;BME280;16902;50.816;12.828;2023-08-06T00:22:19;96948.47;;;13.78;100.00
30081;BME280;16902;50.816;12.828;2023-08-06T00:27:25;96960.03;;;13.71;100.00
30081;BME280;16902;50.816;12.828;2023-08-06T00:32:27;96956.25;;;13.67;100.00
30081;BME280;16902;50.816;12.828;2023-08-06T00:37:29;96944.63;;;13.62;100.00
30081;BME280;16902;50.816;12.828;2023-08-06T00:42:33;96950.72;;;13.56;100.00
30081;BME280;16902;50.816;12.828;2023-08-06T00:47:36;96935.47;;;13.53;100.00
30081;BME280;16902;50.816;12.828;2023-08-06T00:52:39;96938.69;;;13.55;100.00
30081;BME280;16902;50.816;12.828;2023-08-06T00:57:41;96936.63;;;13.57;100.00
30081;BME280;16902;50.816;12.828;2023-08-06T01:02:44;96939.09;;;13.52;100.00
30081;BME280;16902;50.816;12.828;2023-08-06T01:18:33;96935.91;;;13.69;100.00
30081;BME280;16902;50.816;12.828;2023-08-06T01:23:35;96929.19;;;13.73;100.00
30081;BME280;16902;50.816;12.828;2023-08-06T01:34:01;96931.13;;;13.66;100.00
30081;BME280;16902;50.816;12.828;2023-08-06T01:39:04;96925.00;;;13.72;100.00
30081;BME280;16902;50.816;12.828;2023-08-06T01:44:06;96914.53;;;13.72;100.00
30081;BME280;16902;50.816;12.828;2023-08-06T01:49:08;96906.53;;;13.67;100.00
30081;BME280;16902;50.816;12.828;2023-08-06T01:54:10;96898.13;;;13.65;100.00
30081;BME280;16902;50.816;12.828;2023-08-06T01:59:12;96896.03;;;13.55;100.00
30081;BME280;16902;50.816;12.828;2023-08-06T02:04:14;96887.47;;;13.48;100.00
30081;BME280;16902;50.816;12.828;2023-08-06T02:09:16;96887.91;;;13.45;100.00
30081;BME280;16902;50.816;12.828;2023-08-06T02:14:18;96881.88;;;13.44;100.00
30081;BME280;16902;50.816;12.828;2023-08-06T02:19:20;96878.91;;;13.41;100.00
30081;BME280;16902;50.816;12.828;2023-08-06T02:24:22;96869.66;;;13.38;100.00
30081;BME280;16902;50.816;12.828;2023-08-06T02:29:24;96853.03;;;13.32;100.00
30081;BME280;16902;50.816;12.828;2023-08-06T02:34:25;96849.50;;;13.27;100.00
30081;BME280;16902;50.816;12.828;2023-08-06T02:39:27;96857.09;;;13.28;100.00
30081;BME280;16902;50.816;12.828;2023-08-06T02:44:29;96848.88;;;13.61;100.00
30081;BME280;16902;50.816;12.828;2023-08-06T02:49:31;96844.13;;;13.70;100.00
30081;BME280;16902;50.816;12.828;2023-08-06T02:54:33;96844.03;;;13.77;100.00
30081;BME280;16902;50.816;12.828;2023-08-06T02:59:35;96849.34;;;14.00;100.00
30081;BME280;16902;50.816;12.828;2023-08-06T03:04:50;96842.22;;;14.07;100.00
30081;BME280;16902;50.816;12.828;2023-08-06T03:09:56;96845.38;;;14.09;100.00
30081;BME280;16902;50.816;12.828;2023-08-06T03:14:59;96837.66;;;14.14;100.00
30081;BME280;16902;50.816;12.828;2023-08-06T03:20:01;96829.13;;;14.19;100.00
30081;BME280;16902;50.816;12.828;2023-08-06T03:25:05;96828.34;;;14.19;100.00
30081;BME280;16902;50.816;12.828;2023-08-06T03:30:09;96829.03;;;14.26;100.00
30081;BME280;16902;50.816;12.828;2023-08-06T03:35:14;96827.66;;;14.23;100.00
30081;BME280;16902;50.816;12.828;2023-08-06T03:40:16;96823.56;;;14.27;100.00
30081;BME280;16902;50.816;12.828;2023-08-06T03:45:18;96816.63;;;14.33;100.00
30081;BME280;16902;50.816;12.828;2023-08-06T03:50:20;96820.06;;;14.33;100.00
30081;BME280;16902;50.816;12.828;2023-08-06T03:55:22;96810.38;;;14.22;100.00
30081;BME280;16902;50.816;12.828;2023-08-06T04:00:24;96801.72;;;14.22;100.00
30081;BME280;16902;50.816;12.828;2023-08-06T04:05:31;96806.81;;;14.17;100.00
30081;BME280;16902;50.816;12.828;2023-08-06T04:10:33;96799.31;;;14.08;100.00
30081;BME280;16902;50.816;12.828;2023-08-06T04:15:35;96801.31;;;13.95;100.00
30081;BME280;16902;50.816;12.828;2023-08-06T04:20:46;96795.47;;;13.81;100.00
30081;BME280;16902;50.816;12.828;2023-08-06T04:25:48;96802.66;;;13.74;100.00
30081;BME280;16902;50.816;12.828;2023-08-06T04:30:50;96802.38;;;13.63;100.00
30081;BME280;16902;50.816;12.828;2023-08-06T04:35:55;96793.44;;;13.53;100.00
30081;BME280;16902;50.816;12.828;2023-08-06T04:41:00;96787.06;;;13.49;100.00
30081;BME280;16902;50.816;12.828;2023-08-06T04:46:03;96787.75;;;13.44;100.00
30081;BME280;16902;50.816;12.828;2023-08-06T04:51:05;96787.81;;;13.37;100.00
30081;BME280;16902;50.816;12.828;2023-08-06T04:56:07;96778.81;;;13.33;100.00
30081;BME280;16902;50.816;12.828;2023-08-06T05:01:09;96782.47;;;13.32;100.00
30081;BME280;16902;50.816;12.828;2023-08-06T05:06:11;96775.88;;;13.30;100.00
30081;BME280;16902;50.816;12.828;2023-08-06T05:11:13;96776.69;;;13.30;100.00
30081;BME280;16902;50.816;12.828;2023-08-06T05:16:14;96766.88;;;13.26;100.00
30081;BME280;16902;50.816;12.828;2023-08-06T05:21:16;96768.53;;;13.20;100.00
30081;BME280;16902;50.816;12.828;2023-08-06T05:26:18;96758.06;;;13.20;100.00
30081;BME280;16902;50.816;12.828;2023-08-06T05:31:21;96764.91;;;13.21;100.00
30081;BME280;16902;50.816;12.828;2023-08-06T05:36:23;96760.50;;;13.22;100.00
30081;BME280;16902;50.816;12.828;2023-08-06T05:41:24;96753.22;;;13.24;100.00
30081;BME280;16902;50.816;12.828;2023-08-06T05:46:26;96753.03;;;13.37;100.00
30081;BME280;16902;50.816;12.828;2023-08-06T05:51:28;96757.63;;;13.42;100.00
30081;BME280;16902;50.816;12.828;2023-08-06T05:56:30;96755.78;;;13.42;100.00
30081;BME280;16902;50.816;12.828;2023-08-06T06:01:32;96753.44;;;13.52;100.00
30081;BME280;16902;50.816;12.828;2023-08-06T06:06:34;96755.44;;;13.69;100.00
30081;BME280;16902;50.816;12.828;2023-08-06T06:11:36;96749.53;;;13.73;100.00
30081;BME280;16902;50.816;12.828;2023-08-06T06:16:38;96757.63;;;13.83;100.00
30081;BME280;16902;50.816;12.828;2023-08-06T06:21:40;96758.66;;;13.94;100.00
30081;BME280;16902;50.816;12.828;2023-08-06T06:26:42;96741.50;;;13.98;100.00
30081;BME280;16902;50.816;12.828;2023-08-06T06:31:44;96738.88;;;14.10;100.00
30081;BME280;16902;50.816;12.828;2023-08-06T06:36:46;96730.00;;;14.23;100.00
30081;BME280;16902;50.816;12.828;2023-08-06T06:41:47;96740.13;;;14.31;100.00
30081;BME280;16902;50.816;12.828;2023-08-06T06:46:58;96746.84;;;14.27;100.00
30081;BME280;16902;50.816;12.828;2023-08-06T06:52:00;96739.09;;;14.44;100.00
30081;BME280;16902;50.816;12.828;2023-08-06T06:57:02;96736.84;;;14.59;100.00
30081;BME280;16902;50.816;12.828;2023-08-06T07:02:05;96738.88;;;14.69;100.00
30081;BME280;16902;50.816;12.828;2023-08-06T07:07:07;96737.03;;;14.81;100.00
30081;BME280;16902;50.816;12.828;2023-08-06T07:12:09;96739.16;;;14.96;100.00
30081;BME280;16902;50.816;12.828;2023-08-06T07:17:10;96735.94;;;15.05;100.00
30081;BME280;16902;50.816;12.828;2023-08-06T07:22:12;96740.63;;;15.32;100.00
30081;BME280;16902;50.816;12.828;2023-08-06T07:27:14;96744.94;;;15.38;100.00
30081;BME280;16902;50.816;12.828;2023-08-06T07:32:16;96742.25;;;15.21;100.00
30081;BME280;16902;50.816;12.828;2023-08-06T07:37:18;96744.19;;;15.26;100.00
30081;BME280;16902;50.816;12.828;2023-08-06T07:42:20;96737.47;;;15.18;100.00
30081;BME280;16902;50.816;12.828;2023-08-06T07:47:22;96731.03;;;15.09;100.00
30081;BME280;16902;50.816;12.828;2023-08-06T07:52:25;96728.28;;;15.15;100.00
30081;BME280;16902;50.816;12.828;2023-08-06T07:57:26;96730.00;;;15.10;100.00
30081;BME280;16902;50.816;12.828;2023-08-06T08:02:28;96727.13;;;15.11;100.00
30081;BME280;16902;50.816;12.828;2023-08-06T08:07:32;96724.94;;;15.20;100.00
30081;BME280;16902;50.816;12.828;2023-08-06T08:12:34;96716.03;;;15.21;100.00
30081;BME280;16902;50.816;12.828;2023-08-06T08:17:35;96718.72;;;15.38;100.00
30081;BME280;16902;50.816;12.828;2023-08-06T08:22:37;96720.16;;;15.46;100.00
30081;BME280;16902;50.816;12.828;2023-08-06T08:27:39;96720.59;;;15.71;100.00
30081;BME280;16902;50.816;12.828;2023-08-06T08:32:42;96711.16;;;15.87;100.00
30081;BME280;16902;50.816;12.828;2023-08-06T08:37:44;96706.69;;;16.04;100.00
30081;BME280;16902;50.816;12.828;2023-08-06T08:42:46;96703.84;;;15.89;100.00
30081;BME280;16902;50.816;12.828;2023-08-06T08:47:49;96697.69;;;16.17;100.00
30081;BME280;16902;50.816;12.828;2023-08-06T08:52:51;96691.81;;;16.49;100.00
30081;BME280;16902;50.816;12.828;2023-08-06T08:57:53;96693.38;;;16.88;100.00
30081;BME280;16902;50.816;12.828;2023-08-06T09:02:56;96700.69;;;17.08;100.00
30081;BME280;16902;50.816;12.828;2023-08-06T09:08:04;96696.97;;;17.04;100.00
30081;BME280;16902;50.816;12.828;2023-08-06T09:13:06;96704.75;;;16.94;100.00
30081;BME280;16902;50.816;12.828;2023-08-06T09:18:10;96705.13;;;17.57;100.00
30081;BME280;16902;50.816;12.828;2023-08-06T09:23:13;96699.16;;;17.66;100.00
30081;BME280;16902;50.816;12.828;2023-08-06T09:28:15;96689.00;;;17.75;100.00
30081;BME280;16902;50.816;12.828;2023-08-06T09:33:22;96688.50;;;17.83;100.00
30081;BME280;16902;50.816;12.828;2023-08-06T09:38:24;96696.25;;;17.95;100.00
30081;BME280;16902;50.816;12.828;2023-08-06T09:43:26;96686.16;;;18.24;100.00
30081;BME280;16902;50.816;12.828;2023-08-06T09:48:28;96684.31;;;18.24;100.00
30081;BME280;16902;50.816;12.828;2023-08-06T09:53:31;96685.13;;;18.72;100.00
30081;BME280;16902;50.816;12.828;2023-08-06T09:58:36;96677.25;;;18.88;100.00
30081;BME280;16902;50.816;12.828;2023-08-06T10:03:40;96668.59;;;18.40;100.00
30081;BME280;16902;50.816;12.828;2023-08-06T10:08:42;96665.88;;;18.77;100.00
30081;BME280;16902;50.816;12.828;2023-08-06T10:13:44;96661.09;;;18.69;100.00
30081;BME280;16902;50.816;12.828;2023-08-06T10:18:47;96657.44;;;18.85;100.00
30081;BME280;16902;50.816;12.828;2023-08-06T10:23:56;96648.84;;;19.15;100.00
30081;BME280;16902;50.816;12.828;2023-08-06T10:28:58;96642.13;;;18.72;100.00
30081;BME280;16902;50.816;12.828;2023-08-06T10:34:00;96637.38;;;18.74;100.00
30081;BME280;16902;50.816;12.828;2023-08-06T10:39:02;96643.66;;;18.63;100.00
30081;BME280;16902;50.816;12.828;2023-08-06T10:44:09;96639.81;;;18.86;100.00
30081;BME280;16902;50.816;12.828;2023-08-06T10:49:13;96622.47;;;18.37;100.00
30081;BME280;16902;50.816;12.828;2023-08-06T10:54:15;96623.88;;;18.65;100.00
30081;BME280;16902;50.816;12.828;2023-08-06T10:59:17;96624.03;;;19.26;100.00
30081;BME280;16902;50.816;12.828;2023-08-06T11:04:19;96612.44;;;19.48;100.00
30081;BME280;16902;50.816;12.828;2023-08-06T11:09:21;96606.63;;;19.25;100.00
30081;BME280;16902;50.816;12.828;2023-08-06T11:14:23;96600.19;;;20.18;100.00
30081;BME280;16902;50.816;12.828;2023-08-06T11:19:25;96598.44;;;20.68;100.00
30081;BME280;16902;50.816;12.828;2023-08-06T11:24:29;96583.84;;;20.76;100.00
30081;BME280;16902;50.816;12.828;2023-08-06T11:29:37;96580.84;;;21.27;100.00
30081;BME280;16902;50.816;12.828;2023-08-06T11:34:39;96577.75;;;20.81;100.00
30081;BME280;16902;50.816;12.828;2023-08-06T11:39:46;96571.69;;;21.77;100.00
30081;BME280;16902;50.816;12.828;2023-08-06T11:44:48;96574.53;;;21.23;100.00
30081;BME280;16902;50.816;12.828;2023-08-06T11:49:50;96567.13;;;20.86;100.00
30081;BME280;16902;50.816;12.828;2023-08-06T11:55:06;96567.19;;;20.75;100.00
30081;BME280;16902;50.816;12.828;2023-08-06T12:00:11;96569.31;;;21.52;100.00
30081;BME280;16902;50.816;12.828;2023-08-06T12:05:17;96563.13;;;21.22;100.00
30081;BME280;16902;50.816;12.828;2023-08-06T12:10:20;96559.41;;;22.16;100.00
30081;BME280;16902;50.816;12.828;2023-08-06T12:20:24;96561.09;;;23.57;100.00
30081;BME280;16902;50.816;12.828;2023-08-06T12:25:26;96561.72;;;22.41;100.00
30081;BME280;16902;50.816;12.828;2023-08-06T12:30:28;96547.13;;;21.09;100.00
30081;BME280;16902;50.816;12.828;2023-08-06T12:35:30;96541.78;;;22.25;100.00
30081;BME280;16902;50.816;12.828;2023-08-06T12:40:31;96540.19;;;24.11;100.00
30081;BME280;16902;50.816;12.828;2023-08-06T12:45:40;96555.78;;;26.94;99.79
30081;BME280;16902;50.816;12.828;2023-08-06T12:50:42;96562.06;;;26.89;64.87
30081;BME280;16902;50.816;12.828;2023-08-06T12:55:44;96535.97;;;25.95;78.48
30081;BME280;16902;50.816;12.828;2023-08-06T13:00:45;96539.59;;;26.90;62.14
30081;BME280;16902;50.816;12.828;2023-08-06T13:05:47;96538.16;;;26.58;72.40
30081;BME280;16902;50.816;12.828;2023-08-06T13:10:49;96527.19;;;23.96;100.00
30081;BME280;16902;50.816;12.828;2023-08-06T13:15:50;96523.25;;;23.79;100.00
30081;BME280;16902;50.816;12.828;2023-08-06T13:20:53;96521.09;;;24.23;100.00
30081;BME280;16902;50.816;12.828;2023-08-06T13:25:55;96511.84;;;24.93;100.00
30081;BME280;16902;50.816;12.828;2023-08-06T13:30:57;96508.81;;;24.85;100.00
30081;BME280;16902;50.816;12.828;2023-08-06T13:35:59;96515.41;;;25.95;100.00
30081;BME280;16902;50.816;12.828;2023-08-06T13:41:01;96520.06;;;29.44;68.59
30081;BME280;16902;50.816;12.828;2023-08-06T13:46:02;96521.09;;;33.76;45.55
30081;BME280;16902;50.816;12.828;2023-08-06T13:51:04;96511.59;;;29.09;55.27
30081;BME280;16902;50.816;12.828;2023-08-06T13:56:09;96511.13;;;25.01;100.00
30081;BME280;16902;50.816;12.828;2023-08-06T14:01:17;96521.47;;;22.58;100.00
30081;BME280;16902;50.816;12.828;2023-08-06T14:06:19;96521.59;;;21.81;100.00
30081;BME280;16902;50.816;12.828;2023-08-06T14:11:21;96522.84;;;24.14;100.00
30081;BME280;16902;50.816;12.828;2023-08-06T14:16:23;96521.53;;;26.87;100.00
30081;BME280;16902;50.816;12.828;2023-08-06T14:21:24;96503.63;;;24.44;100.00
30081;BME280;16902;50.816;12.828;2023-08-06T14:26:26;96516.13;;;22.77;100.00
30081;BME280;16902;50.816;12.828;2023-08-06T14:31:28;96514.88;;;21.89;100.00
30081;BME280;16902;50.816;12.828;2023-08-06T14:36:29;96510.59;;;21.93;100.00
30081;BME280;16902;50.816;12.828;2023-08-06T14:41:31;96522.16;;;22.26;100.00
30081;BME280;16902;50.816;12.828;2023-08-06T14:46:33;96519.25;;;21.74;100.00
30081;BME280;16902;50.816;12.828;2023-08-06T14:51:35;96515.97;;;21.35;100.00
30081;BME280;16902;50.816;12.828;2023-08-06T14:56:36;96523.69;;;22.89;100.00
30081;BME280;16902;50.816;12.828;2023-08-06T15:01:38;96518.31;;;26.16;100.00
30081;BME280;16902;50.816;12.828;2023-08-06T15:06:40;96517.13;;;24.48;84.26
30081;BME280;16902;50.816;12.828;2023-08-06T15:11:41;96512.66;;;26.18;55.81
30081;BME280;16902;50.816;12.828;2023-08-06T15:16:46;96521.84;;;26.86;52.21
30081;BME280;16902;50.816;12.828;2023-08-06T15:21:48;96521.16;;;28.56;46.58
30081;BME280;16902;50.816;12.828;2023-08-06T15:26:49;96530.66;;;29.86;44.81
30081;BME280;16902;50.816;12.828;2023-08-06T15:31:51;96528.69;;;29.50;43.50
30081;BME280;16902;50.816;12.828;2023-08-06T15:36:53;96540.53;;;29.94;42.52
30081;BME280;16902;50.816;12.828;2023-08-06T15:41:56;96549.50;;;27.89;47.25
30081;BME280;16902;50.816;12.828;2023-08-06T15:46:58;96538.91;;;26.42;59.51
30081;BME280;16902;50.816;12.828;2023-08-06T15:51:59;96536.75;;;23.69;100.00
30081;BME280;16902;50.816;12.828;2023-08-06T15:57:01;96529.16;;;21.05;100.00
30081;BME280;16902;50.816;12.828;2023-08-06T16:02:03;96529.19;;;19.96;100.00
30081;BME280;16902;50.816;12.828;2023-08-06T16:07:05;96526.75;;;20.10;100.00
30081;BME280;16902;50.816;12.828;2023-08-06T16:12:07;96526.03;;;20.54;100.00
30081;BME280;16902;50.816;12.828;2023-08-06T16:17:11;96539.19;;;20.05;100.00
30081;BME280;16902;50.816;12.828;2023-08-06T16:22:13;96532.72;;;19.51;100.00
30081;BME280;16902;50.816;12.828;2023-08-06T16:27:14;96535.34;;;19.66;100.00
30081;BME280;16902;50.816;12.828;2023-08-06T16:32:16;96528.47;;;19.55;100.00
30081;BME280;16902;50.816;12.828;2023-08-06T16:37:18;96536.44;;;19.30;100.00
30081;BME280;16902;50.816;12.828;2023-08-06T16:42:19;96530.88;;;19.46;100.00
30081;BME280;16902;50.816;12.828;2023-08-06T16:47:21;96532.22;;;18.98;100.00
30081;BME280;16902;50.816;12.828;2023-08-06T16:52:23;96528.50;;;18.84;100.00
30081;BME280;16902;50.816;12.828;2023-08-06T16:57:24;96523.78;;;18.86;100.00
30081;BME280;16902;50.816;12.828;2023-08-06T17:02:26;96522.09;;;18.49;100.00
30081;BME280;16902;50.816;12.828;2023-08-06T17:07:28;96533.66;;;18.28;100.00
30081;BME280;16902;50.816;12.828;2023-08-06T17:12:29;96527.81;;;18.26;100.00
30081;BME280;16902;50.816;12.828;2023-08-06T17:17:31;96520.47;;;18.33;100.00
30081;BME280;16902;50.816;12.828;2023-08-06T17:22:33;96525.44;;;18.19;100.00
30081;BME280;16902;50.816;12.828;2023-08-06T17:27:35;96529.84;;;18.03;100.00
30081;BME280;16902;50.816;12.828;2023-08-06T17:32:37;96534.28;;;17.97;100.00
30081;BME280;16902;50.816;12.828;2023-08-06T17:37:41;96539.97;;;17.74;100.00
30081;BME280;16902;50.816;12.828;2023-08-06T17:42:43;96526.63;;;17.48;100.00
30081;BME280;16902;50.816;12.828;2023-08-06T17:47:45;96534.94;;;17.35;100.00
30081;BME280;16902;50.816;12.828;2023-08-06T17:52:49;96540.13;;;17.25;100.00
30081;BME280;16902;50.816;12.828;2023-08-06T17:57:51;96540.56;;;17.07;100.00
30081;BME280;16902;50.816;12.828;2023-08-06T18:02:53;96564.75;;;16.82;100.00
30081;BME280;16902;50.816;12.828;2023-08-06T18:07:55;96554.06;;;16.66;100.00
30081;BME280;16902;50.816;12.828;2023-08-06T18:12:56;96562.38;;;16.58;100.00
30081;BME280;16902;50.816;12.828;2023-08-06T18:17:58;96564.13;;;16.48;100.00
30081;BME280;16902;50.816;12.828;2023-08-06T18:23:00;96568.03;;;16.45;100.00
30081;BME280;16902;50.816;12.828;2023-08-06T18:28:02;96566.69;;;16.42;100.00
30081;BME280;16902;50.816;12.828;2023-08-06T18:33:04;96578.13;;;16.31;100.00
30081;BME280;16902;50.816;12.828;2023-08-06T18:38:06;96580.69;;;16.26;100.00
30081;BME280;16902;50.816;12.828;2023-08-06T18:43:08;96582.47;;;16.21;100.00
30081;BME280;16902;50.816;12.828;2023-08-06T18:48:10;96589.97;;;16.12;100.00
30081;BME280;16902;50.816;12.828;2023-08-06T18:53:15;96584.69;;;15.90;100.00
30081;BME280;16902;50.816;12.828;2023-08-06T18:58:17;96591.47;;;15.69;100.00
30081;BME280;16902;50.816;12.828;2023-08-06T19:03:19;96592.81;;;15.55;100.00
30081;BME280;16902;50.816;12.828;2023-08-06T19:08:21;96600.63;;;15.50;100.00
30081;BME280;16902;50.816;12.828;2023-08-06T19:13:23;96610.00;;;15.46;100.00
30081;BME280;16902;50.816;12.828;2023-08-06T19:18:25;96622.22;;;15.23;100.00
30081;BME280;16902;50.816;12.828;2023-08-06T19:23:27;96625.50;;;14.85;100.00
30081;BME280;16902;50.816;12.828;2023-08-06T19:28:29;96624.44;;;14.57;100.00
30081;BME280;16902;50.816;12.828;2023-08-06T19:33:31;96628.22;;;14.38;100.00
30081;BME280;16902;50.816;12.828;2023-08-06T19:38:33;96635.78;;;14.23;100.00
30081;BME280;16902;50.816;12.828;2023-08-06T19:43:35;96632.50;;;14.04;100.00
30081;BME280;16902;50.816;12.828;2023-08-06T19:48:38;96628.19;;;13.98;100.00
30081;BME280;16902;50.816;12.828;2023-08-06T19:53:40;96622.50;;;13.89;100.00
30081;BME280;16902;50.816;12.828;2023-08-06T19:58:44;96627.03;;;13.94;100.00
30081;BME280;16902;50.816;12.828;2023-08-06T20:03:46;96619.97;;;13.94;100.00
30081;BME280;16902;50.816;12.828;2023-08-06T20:08:48;96622.84;;;13.93;100.00
30081;BME280;16902;50.816;12.828;2023-08-06T20:13:49;96627.94;;;13.99;100.00
30081;BME280;16902;50.816;12.828;2023-08-06T20:18:51;96626.91;;;14.00;100.00
30081;BME280;16902;50.816;12.828;2023-08-06T20:23:53;96631.59;;;13.98;100.00
30081;BME280;16902;50.816;12.828;2023-08-06T20:28:55;96632.28;;;13.94;100.00
30081;BME280;16902;50.816;12.828;2023-08-06T20:33:59;96629.53;;;13.88;100.00
30081;BME280;16902;50.816;12.828;2023-08-06T20:39:01;96631.03;;;13.84;100.00
30081;BME280;16902;50.816;12.828;2023-08-06T20:44:03;96624.41;;;13.82;100.00
30081;BME280;16902;50.816;12.828;2023-08-06T20:49:05;96630.56;;;13.76;100.00
30081;BME280;16902;50.816;12.828;2023-08-06T20:54:07;96626.25;;;13.70;100.00
30081;BME280;16902;50.816;12.828;2023-08-06T20:59:09;96645.00;;;13.67;100.00
30081;BME280;16902;50.816;12.828;2023-08-06T21:04:12;96645.09;;;13.60;100.00
30081;BME280;16902;50.816;12.828;2023-08-06T21:09:14;96642.69;;;13.58;100.00
30081;BME280;16902;50.816;12.828;2023-08-06T21:14:16;96633.94;;;13.53;100.00
30081;BME280;16902;50.816;12.828;2023-08-06T21:19:18;96632.56;;;13.38;100.00
30081;BME280;16902;50.816;12.828;2023-08-06T21:24:20;96637.91;;;13.32;100.00
30081;BME280;16902;50.816;12.828;2023-08-06T21:29:22;96632.97;;;13.24;100.00
30081;BME280;16902;50.816;12.828;2023-08-06T21:34:23;96637.94;;;13.13;100.00
30081;BME280;16902;50.816;12.828;2023-08-06T21:39:25;96643.50;;;13.05;100.00
30081;BME280;16902;50.816;12.828;2023-08-06T21:44:27;96658.81;;;13.02;100.00
30081;BME280;16902;50.816;12.828;2023-08-06T21:49:29;96655.41;;;13.01;100.00
30081;BME280;16902;50.816;12.828;2023-08-06T21:54:31;96663.13;;;12.96;100.00
30081;BME280;16902;50.816;12.828;2023-08-06T21:59:33;96668.09;;;12.98;100.00
30081;BME280;16902;50.816;12.828;2023-08-06T22:04:35;96682.06;;;12.92;100.00
30081;BME280;16902;50.816;12.828;2023-08-06T22:09:37;96684.88;;;12.90;100.00
30081;BME280;16902;50.816;12.828;2023-08-06T22:14:39;96696.56;;;12.88;100.00
30081;BME280;16902;50.816;12.828;2023-08-06T22:19:41;96688.88;;;12.93;100.00
30081;BME280;16902;50.816;12.828;2023-08-06T22:24:43;96698.06;;;12.95;100.00
30081;BME280;16902;50.816;12.828;2023-08-06T22:29:45;96689.56;;;13.00;100.00
30081;BME280;16902;50.816;12.828;2023-08-06T22:34:47;96689.38;;;13.01;100.00
30081;BME280;16902;50.816;12.828;2023-08-06T22:39:49;96702.06;;;12.98;100.00
30081;BME280;16902;50.816;12.828;2023-08-06T22:44:51;96701.63;;;13.01;100.00
30081;BME280;16902;50.816;12.828;2023-08-06T22:49:53;96709.25;;;13.02;100.00
30081;BME280;16902;50.816;12.828;2023-08-06T22:54:55;96702.88;;;12.98;100.00
30081;BME280;16902;50.816;12.828;2023-08-06T23:00:17;96704.09;;;12.96;100.00
30081;BME280;16902;50.816;12.828;2023-08-06T23:05:18;96696.84;;;12.98;100.00
30081;BME280;16902;50.816;12.828;2023-08-06T23:10:20;96691.25;;;12.94;100.00
30081;BME280;16902;50.816;12.828;2023-08-06T23:15:24;96691.47;;;12.93;100.00
30081;BME280;16902;50.816;12.828;2023-08-06T23:20:26;96697.50;;;12.93;100.00
30081;BME280;16902;50.816;12.828;2023-08-06T23:25:28;96694.09;;;12.93;100.00
30081;BME280;16902;50.816;12.828;2023-08-06T23:30:30;96692.03;;;12.95;100.00
30081;BME280;16902;50.816;12.828;2023-08-06T23:35:32;96690.81;;;12.97;100.00
30081;BME280;16902;50.816;12.828;2023-08-06T23:40:34;96694.47;;;12.96;100.00
30081;BME280;16902;50.816;12.828;2023-08-06T23:45:36;96686.63;;;12.96;100.00
30081;BME280;16902;50.816;12.828;2023-08-06T23:50:38;96689.09;;;12.91;100.00
30081;BME280;16902;50.816;12.828;2023-08-06T23:55:40;96702.72;;;12.93;100.00
